Concord Township, Maine
Current Conditions -  °F | °C
As of 9:15 AM on Friday 24 Oct 2014 (Local Time) from KWVL Reporting Station
Overcast Overcast  
Wind Chill: 41°   Ceiling: 1100
Heat Index: 46°   Visibility: 10mi
Dew Point: 41°   Wind: 13mph
Humidity: 81%   Direction: 340°NNW
Pressure: 29.68"   Gusts: NA
Location:  45.1348°N, 69.8823°W
Report Text: KWVL 241315Z 34011KT 10SM BKN011 OVC018 08/05 A2968 RMK AO1 P0001
Loading
Personal Weather Stations






























Interactive Weather Map
Tropical Storm Tracking
New forecast layout! Learn more

10-Day Weather Forecast

Advertisements
Track Severe Weather on mobile